createdAt,value
2023-04-20T00:01:31.848Z,7.80
2023-04-20T00:03:59.998Z,7.70
2023-04-20T00:06:29.829Z,7.60
2023-04-20T00:08:58.123Z,7.60
2023-04-20T00:11:26.636Z,7.50
2023-04-20T00:13:56.059Z,7.50
2023-04-20T00:16:24.516Z,7.40
2023-04-20T00:18:52.589Z,7.40
2023-04-20T00:21:23.868Z,7.30
2023-04-20T00:23:52.700Z,7.30
2023-04-20T00:26:21.527Z,7.20
2023-04-20T00:28:55.033Z,7.20
2023-04-20T00:31:23.147Z,7.30
2023-04-20T00:33:51.262Z,7.30
2023-04-20T00:36:19.348Z,7.40
2023-04-20T00:38:47.415Z,7.40
2023-04-20T00:41:15.521Z,7.30
2023-04-20T00:43:52.040Z,7.40
2023-04-20T00:46:21.895Z,7.40
2023-04-20T00:48:51.783Z,7.50
2023-04-20T00:51:20.557Z,7.50
2023-04-20T00:53:48.563Z,7.50
2023-04-20T00:56:17.230Z,7.50
2023-04-20T00:58:45.239Z,7.60
2023-04-20T01:01:17.499Z,7.50
2023-04-20T01:03:48.966Z,7.60
2023-04-20T01:06:18.517Z,7.60
2023-04-20T01:08:48.566Z,7.70
2023-04-20T01:11:16.573Z,7.80
2023-04-20T01:13:45.105Z,7.80
2023-04-20T01:16:13.295Z,7.80
2023-04-20T01:18:46.502Z,7.80
2023-04-20T01:21:18.762Z,7.80
2023-04-20T01:23:48.477Z,7.80
2023-04-20T01:26:18.347Z,7.80
2023-04-20T01:28:47.110Z,7.90
2023-04-20T01:31:16.889Z,7.90
2023-04-20T01:33:44.986Z,7.90
2023-04-20T01:36:13.059Z,7.90
2023-04-20T01:38:41.219Z,7.90
2023-04-20T01:41:11.635Z,7.90
2023-04-20T01:43:40.689Z,7.90
2023-04-20T01:46:08.973Z,7.90
2023-04-20T01:48:37.105Z,7.90
2023-04-20T01:51:05.353Z,7.90
2023-04-20T01:53:34.105Z,8.00
2023-04-20T01:56:02.077Z,8.00
2023-04-20T01:58:31.615Z,8.00
2023-04-20T02:00:59.702Z,8.00
2023-04-20T02:03:28.646Z,8.00
2023-04-20T02:05:57.030Z,8.00
2023-04-20T02:08:29.478Z,8.00
2023-04-20T02:10:57.430Z,8.10
2023-04-20T02:13:25.701Z,8.10
2023-04-20T02:15:55.598Z,8.10
2023-04-20T02:18:24.476Z,8.00
2023-04-20T02:20:52.590Z,8.00
2023-04-20T02:23:20.602Z,8.00
2023-04-20T02:25:48.638Z,8.00
2023-04-20T02:28:16.616Z,8.00
2023-04-20T02:30:44.706Z,8.00
2023-04-20T02:33:14.487Z,8.00
2023-04-20T02:35:42.549Z,8.00
2023-04-20T02:38:12.207Z,8.00
2023-04-20T02:40:40.383Z,7.90
2023-04-20T02:43:09.321Z,7.90
2023-04-20T02:45:38.841Z,7.90
2023-04-20T02:48:08.418Z,7.90
2023-04-20T02:50:39.085Z,7.90
2023-04-20T02:53:15.529Z,8.00
2023-04-20T02:55:46.290Z,8.00
2023-04-20T02:58:34.249Z,7.90
2023-04-20T03:01:16.628Z,7.90
2023-04-20T03:03:46.848Z,7.80
2023-04-20T03:06:17.051Z,7.80
2023-04-20T03:08:50.894Z,7.70
2023-04-20T03:11:48.158Z,7.70
2023-04-20T03:14:29.524Z,7.70
2023-04-20T03:16:57.589Z,7.60
2023-04-20T03:19:25.886Z,7.60
2023-04-20T03:21:55.224Z,7.60
2023-04-20T03:24:24.090Z,7.60
2023-04-20T03:26:52.744Z,7.60
2023-04-20T03:29:29.730Z,7.50
2023-04-20T03:31:58.021Z,7.50
2023-04-20T03:34:26.730Z,7.50
2023-04-20T03:36:56.791Z,7.50
2023-04-20T03:39:24.878Z,7.60
2023-04-20T03:41:52.829Z,7.60
2023-04-20T03:44:20.795Z,7.60
2023-04-20T03:46:48.808Z,7.60
2023-04-20T03:49:17.075Z,7.60
2023-04-20T03:51:45.646Z,7.60
2023-04-20T03:54:15.001Z,7.60
2023-04-20T03:56:44.640Z,7.60
2023-04-20T03:59:13.836Z,7.60
2023-04-20T04:01:45.121Z,7.60
2023-04-20T04:04:14.679Z,7.50
2023-04-20T04:06:42.882Z,7.50
2023-04-20T04:09:10.845Z,7.50
2023-04-20T04:11:40.264Z,7.50
2023-04-20T04:14:08.335Z,7.50
2023-04-20T04:16:38.323Z,7.50
2023-04-20T04:19:06.368Z,7.50
2023-04-20T04:21:35.434Z,7.50
2023-04-20T04:24:05.922Z,7.60
2023-04-20T04:26:43.883Z,7.60
2023-04-20T04:29:14.007Z,7.60
2023-04-20T04:31:42.180Z,7.70
2023-04-20T04:34:18.312Z,7.80
2023-04-20T04:36:50.713Z,7.90
2023-04-20T04:39:24.423Z,7.90
2023-04-20T04:42:04.796Z,8.00
2023-04-20T04:44:40.952Z,8.10
2023-04-20T04:47:11.865Z,8.10
2023-04-20T04:49:43.615Z,8.20
2023-04-20T04:52:13.272Z,8.30
2023-04-20T04:54:41.391Z,8.30
2023-04-20T04:57:10.959Z,8.40
2023-04-20T04:59:38.974Z,8.50
2023-04-20T05:02:07.085Z,8.50
2023-04-20T05:04:35.388Z,8.60
2023-04-20T05:07:03.438Z,8.70
2023-04-20T05:09:33.514Z,8.70
2023-04-20T05:12:03.077Z,8.80
2023-04-20T05:14:33.505Z,8.90
2023-04-20T05:17:02.066Z,9.00
2023-04-20T05:19:30.172Z,9.10
2023-04-20T05:21:58.248Z,9.20
2023-04-20T05:24:26.347Z,9.30
2023-04-20T05:26:54.389Z,9.40
2023-04-20T05:29:22.491Z,9.60
2023-04-20T05:31:51.854Z,9.80
2023-04-20T05:34:19.865Z,10.10
2023-04-20T05:36:48.320Z,10.30
2023-04-20T05:39:16.660Z,10.40
2023-04-20T05:41:45.097Z,10.50
2023-04-20T05:44:13.273Z,10.50
2023-04-20T05:46:41.273Z,10.70
2023-04-20T05:49:10.699Z,10.90
2023-04-20T05:51:38.682Z,11.10
2023-04-20T05:54:06.915Z,11.10
2023-04-20T05:56:35.081Z,11.10
2023-04-20T05:59:03.337Z,11.20
2023-04-20T06:01:31.625Z,11.20
2023-04-20T06:03:59.850Z,11.30
2023-04-20T06:06:29.594Z,11.30
2023-04-20T06:08:58.350Z,11.40
2023-04-20T06:11:26.522Z,11.50
2023-04-20T06:13:54.555Z,11.50
2023-04-20T06:16:22.583Z,11.60
2023-04-20T06:18:50.934Z,11.60
2023-04-20T06:21:19.511Z,11.70
2023-04-20T06:23:48.819Z,11.80
2023-04-20T06:26:16.908Z,11.80
2023-04-20T06:28:45.516Z,12.00
2023-04-20T06:31:13.520Z,12.10
2023-04-20T06:33:41.520Z,12.30
2023-04-20T06:36:09.762Z,12.70
2023-04-20T06:38:37.781Z,12.90
2023-04-20T06:41:07.219Z,13.00
2023-04-20T06:43:35.260Z,13.00
2023-04-20T06:46:03.387Z,12.70
2023-04-20T06:48:32.735Z,12.90
2023-04-20T06:51:01.243Z,13.00
2023-04-20T06:53:29.297Z,13.10
2023-04-20T06:55:57.840Z,13.10
2023-04-20T06:58:42.559Z,13.30
2023-04-20T07:01:10.915Z,13.50
2023-04-20T07:03:39.254Z,13.80
2023-04-20T07:06:11.112Z,14.00
2023-04-20T07:08:40.416Z,14.20
2023-04-20T07:11:08.418Z,14.60
2023-04-20T07:13:37.778Z,14.80
2023-04-20T07:16:06.563Z,15.00
2023-04-20T07:18:35.363Z,15.00
2023-04-20T07:21:03.807Z,15.00
2023-04-20T07:23:31.761Z,15.20
2023-04-20T07:25:59.793Z,15.00
2023-04-20T07:28:27.780Z,15.20
2023-04-20T07:30:57.097Z,15.30
2023-04-20T07:33:25.268Z,15.60
2023-04-20T07:35:53.424Z,15.70
2023-04-20T07:38:21.533Z,15.90
2023-04-20T07:40:49.530Z,16.20
2023-04-20T07:43:17.605Z,16.40
2023-04-20T07:45:45.654Z,16.60
2023-04-20T07:48:15.129Z,16.70
2023-04-20T07:50:43.161Z,16.90
2023-04-20T07:53:11.294Z,17.20
2023-04-20T07:55:39.549Z,17.10
2023-04-20T07:58:07.617Z,17.30
2023-04-20T08:00:35.775Z,17.30
2023-04-20T08:03:04.032Z,17.40
2023-04-20T08:05:33.804Z,17.60
2023-04-20T08:08:01.863Z,17.80
2023-04-20T08:10:29.869Z,17.80
2023-04-20T08:12:58.548Z,17.70
2023-04-20T08:15:26.761Z,17.90
2023-04-20T08:17:54.842Z,17.70
2023-04-20T08:20:22.973Z,17.70
2023-04-20T08:22:53.275Z,17.90
2023-04-20T08:25:21.332Z,18.20
2023-04-20T08:27:49.445Z,17.90
2023-04-20T08:30:17.378Z,18.00
2023-04-20T08:32:45.377Z,18.20
2023-04-20T08:35:13.651Z,18.20
2023-04-20T08:37:42.081Z,18.20
2023-04-20T08:40:12.527Z,18.20
2023-04-20T08:42:40.660Z,18.40
2023-04-20T08:45:09.638Z,18.60
2023-04-20T08:47:38.542Z,18.90
2023-04-20T08:50:08.089Z,19.00
2023-04-20T08:52:38.649Z,19.20
2023-04-20T08:55:08.229Z,19.10
2023-04-20T08:57:37.531Z,19.50
2023-04-20T09:00:12.067Z,19.60
2023-04-20T09:02:51.500Z,19.80
2023-04-20T09:05:27.798Z,20.10
2023-04-20T09:07:57.923Z,20.50
2023-04-20T09:10:26.579Z,20.80
2023-04-20T09:12:55.938Z,20.70
2023-04-20T09:15:28.258Z,20.60
2023-04-20T09:17:56.580Z,20.80
2023-04-20T09:20:32.022Z,20.80
2023-04-20T09:23:11.914Z,20.90
2023-04-20T09:25:41.123Z,20.90
2023-04-20T09:28:11.424Z,20.80
2023-04-20T09:30:40.731Z,21.10
2023-04-20T09:33:10.913Z,21.10
2023-04-20T09:35:40.399Z,21.20
2023-04-20T09:38:08.402Z,21.20
2023-04-20T09:40:37.203Z,21.20
2023-04-20T09:43:09.844Z,21.50
2023-04-20T09:45:40.621Z,21.60
2023-04-20T09:48:09.282Z,21.40
2023-04-20T09:50:47.922Z,20.90
2023-04-20T09:53:18.619Z,20.80
2023-04-20T09:55:47.705Z,20.80
2023-04-20T09:58:15.981Z,21.10
2023-04-20T10:00:45.300Z,21.40
2023-04-20T10:03:17.185Z,21.90
2023-04-20T10:05:45.535Z,22.10
2023-04-20T10:08:13.717Z,22.20
2023-04-20T10:10:46.570Z,22.30
2023-04-20T10:13:15.195Z,22.40
2023-04-20T10:15:45.277Z,22.70
2023-04-20T10:18:18.681Z,22.20
2023-04-20T10:20:47.457Z,21.70
2023-04-20T10:23:16.611Z,20.80
2023-04-20T10:25:47.464Z,20.50
2023-04-20T10:28:15.772Z,20.00
2023-04-20T10:30:54.417Z,19.70
2023-04-20T10:33:22.933Z,20.10
2023-04-20T10:35:54.608Z,20.20
2023-04-20T10:38:33.018Z,20.30
2023-04-20T10:41:08.123Z,20.30
2023-04-20T10:43:38.970Z,20.20
2023-04-20T10:46:16.554Z,20.70
2023-04-20T10:49:03.842Z,21.60
2023-04-20T10:51:32.337Z,21.80
2023-04-20T10:54:06.019Z,22.50
2023-04-20T10:56:41.855Z,22.80
2023-04-20T10:59:14.235Z,22.60
2023-04-20T11:01:44.410Z,23.10
2023-04-20T11:04:14.094Z,23.10
2023-04-20T11:06:44.312Z,23.50
2023-04-20T11:09:20.367Z,23.50
2023-04-20T11:12:00.198Z,23.30
2023-04-20T11:14:28.140Z,23.60
2023-04-20T11:16:57.608Z,23.40
2023-04-20T11:19:29.122Z,23.40
2023-04-20T11:21:57.677Z,22.80
2023-04-20T11:24:26.964Z,22.00
2023-04-20T11:26:56.727Z,21.60
2023-04-20T11:29:29.965Z,21.60
2023-04-20T11:31:59.933Z,22.20
2023-04-20T11:34:28.288Z,22.90
2023-04-20T11:36:57.043Z,23.20
2023-04-20T11:39:25.851Z,23.10
2023-04-20T11:41:54.102Z,23.10
2023-04-20T11:44:22.619Z,22.40
2023-04-20T11:46:53.223Z,22.20
2023-04-20T11:49:22.913Z,21.90
2023-04-20T11:51:51.455Z,22.20
2023-04-20T11:54:20.148Z,22.40
2023-04-20T11:56:48.233Z,22.20
2023-04-20T11:59:19.733Z,21.60
2023-04-20T12:01:48.459Z,21.50
2023-04-20T12:04:17.000Z,22.10
2023-04-20T12:06:46.671Z,22.80
2023-04-20T12:09:14.866Z,23.00
2023-04-20T12:11:42.876Z,23.50
2023-04-20T12:14:10.792Z,23.60
2023-04-20T12:16:38.730Z,23.70
2023-04-20T12:19:06.661Z,24.00
2023-04-20T12:21:34.669Z,24.30
2023-04-20T12:24:04.730Z,24.30
2023-04-20T12:26:38.324Z,24.40
2023-04-20T12:29:07.793Z,24.50
2023-04-20T12:31:36.623Z,24.50
2023-04-20T12:34:04.841Z,24.50
2023-04-20T12:36:34.983Z,23.90
2023-04-20T12:39:05.137Z,23.30
2023-04-20T12:41:33.216Z,22.50
2023-04-20T12:44:04.151Z,22.10
2023-04-20T12:46:32.507Z,21.50
2023-04-20T12:49:00.490Z,21.10
2023-04-20T12:51:28.562Z,20.80
2023-04-20T12:53:56.593Z,20.50
2023-04-20T12:56:25.984Z,20.20
2023-04-20T12:58:53.974Z,19.90
2023-04-20T13:01:22.061Z,19.80
2023-04-20T13:03:51.930Z,19.80
2023-04-20T13:06:19.977Z,20.60
2023-04-20T13:08:48.123Z,21.30
2023-04-20T13:11:17.371Z,21.80
2023-04-20T13:13:46.672Z,21.70
2023-04-20T13:16:14.685Z,21.10
2023-04-20T13:18:42.726Z,20.70
2023-04-20T13:21:10.885Z,20.40
2023-04-20T13:23:39.976Z,20.20
2023-04-20T13:26:08.674Z,20.00
2023-04-20T13:28:37.678Z,20.00
2023-04-20T13:31:07.184Z,20.00
2023-04-20T13:33:35.256Z,19.90
2023-04-20T13:36:03.425Z,19.90
2023-04-20T13:38:31.530Z,19.90
2023-04-20T13:40:59.716Z,19.80
2023-04-20T13:43:27.838Z,19.60
2023-04-20T13:45:55.825Z,19.60
2023-04-20T13:48:25.304Z,19.70
2023-04-20T13:50:54.083Z,19.70
2023-04-20T13:53:22.591Z,19.70
2023-04-20T13:55:50.554Z,19.90
2023-04-20T13:58:18.492Z,20.10
2023-04-20T14:00:46.734Z,20.60
2023-04-20T14:03:15.530Z,20.70
2023-04-20T14:05:45.917Z,20.60
2023-04-20T14:08:14.734Z,20.20
2023-04-20T14:10:42.754Z,19.90
2023-04-20T14:13:10.792Z,20.30
2023-04-20T14:15:38.873Z,20.50
2023-04-20T14:18:07.035Z,20.80
2023-04-20T14:20:35.103Z,21.10
2023-04-20T14:23:04.526Z,21.40
2023-04-20T14:25:32.580Z,21.80
2023-04-20T14:28:00.554Z,21.50
2023-04-20T14:30:28.708Z,21.10
2023-04-20T14:32:58.017Z,20.90
2023-04-20T14:35:27.464Z,20.60
2023-04-20T14:37:55.615Z,20.20
2023-04-20T14:40:25.008Z,19.90
2023-04-20T14:42:53.022Z,19.60
2023-04-20T14:45:21.780Z,19.40
2023-04-20T14:47:54.223Z,19.40
2023-04-20T14:50:23.244Z,19.50
2023-04-20T14:52:51.176Z,19.80
2023-04-20T14:55:23.318Z,20.30
2023-04-20T14:57:55.259Z,20.30
2023-04-20T15:00:24.452Z,20.40
2023-04-20T15:02:53.947Z,20.50
2023-04-20T15:05:22.211Z,20.20
2023-04-20T15:07:50.905Z,20.20
2023-04-20T15:10:19.170Z,20.10
2023-04-20T15:12:49.097Z,19.90
2023-04-20T15:15:18.539Z,19.70
2023-04-20T15:17:47.437Z,19.50
2023-04-20T15:20:16.442Z,19.30
2023-04-20T15:22:44.486Z,19.20
2023-04-20T15:25:12.597Z,19.00
2023-04-20T15:27:40.995Z,18.90
2023-04-20T15:30:10.173Z,18.90
2023-04-20T15:32:40.187Z,19.10
2023-04-20T15:35:08.356Z,19.20
2023-04-20T15:37:36.290Z,19.30
2023-04-20T15:40:05.453Z,19.40
2023-04-20T15:42:33.926Z,19.60
2023-04-20T15:45:01.926Z,19.50
2023-04-20T15:47:29.927Z,19.50
2023-04-20T15:50:01.430Z,19.30
2023-04-20T15:52:30.564Z,19.20
2023-04-20T15:54:58.711Z,19.10
2023-04-20T15:57:26.731Z,18.80
2023-04-20T15:59:55.666Z,18.70
2023-04-20T16:02:24.024Z,18.50
2023-04-20T16:04:52.378Z,18.30
2023-04-20T16:07:21.824Z,18.20
2023-04-20T16:09:50.102Z,18.10
2023-04-20T16:12:18.105Z,18.10
2023-04-20T16:14:46.085Z,18.10
2023-04-20T16:17:14.150Z,18.10
2023-04-20T16:19:42.465Z,18.10
2023-04-20T16:22:10.550Z,18.20
2023-04-20T16:24:40.177Z,18.30
2023-04-20T16:27:08.490Z,18.30
2023-04-20T16:29:37.161Z,18.20
2023-04-20T16:32:05.444Z,18.20
2023-04-20T16:34:33.457Z,18.10
2023-04-20T16:37:01.511Z,18.00
2023-04-20T16:39:29.604Z,17.90
2023-04-20T16:41:58.987Z,17.80
2023-04-20T16:44:27.072Z,17.60
2023-04-20T16:46:55.782Z,17.40
2023-04-20T16:49:24.066Z,17.40
2023-04-20T16:51:52.460Z,17.20
2023-04-20T16:54:21.454Z,17.10
2023-04-20T16:56:51.432Z,17.10
2023-04-20T16:59:20.825Z,17.00
2023-04-20T17:01:50.210Z,16.90
2023-04-20T17:04:18.730Z,16.80
2023-04-20T17:06:47.337Z,16.70
2023-04-20T17:09:15.512Z,16.60
2023-04-20T17:11:43.486Z,16.50
2023-04-20T17:14:11.700Z,16.40
2023-04-20T17:16:41.157Z,16.20
2023-04-20T17:19:21.178Z,16.10
2023-04-20T17:22:08.346Z,16.00
2023-04-20T17:24:40.977Z,15.90
2023-04-20T17:27:09.135Z,15.80
2023-04-20T17:29:38.705Z,15.70
2023-04-20T17:32:08.691Z,15.50
2023-04-20T17:34:36.930Z,15.40
2023-04-20T17:37:04.914Z,15.30
2023-04-20T17:39:32.994Z,15.20
2023-04-20T17:42:01.520Z,15.10
2023-04-20T17:44:29.540Z,15.00
2023-04-20T17:46:59.236Z,14.80
2023-04-20T17:49:31.112Z,14.80
2023-04-20T17:51:59.509Z,14.70
2023-04-20T17:54:27.544Z,14.50
2023-04-20T17:56:56.907Z,14.50
2023-04-20T17:59:24.833Z,14.40
2023-04-20T18:01:53.115Z,14.30
2023-04-20T18:04:21.975Z,14.20
2023-04-20T18:06:52.417Z,14.10
2023-04-20T18:09:20.506Z,14.10
2023-04-20T18:11:48.511Z,14.00
2023-04-20T18:14:16.763Z,14.00
2023-04-20T18:16:44.994Z,13.90
2023-04-20T18:19:13.016Z,13.80
2023-04-20T18:21:41.082Z,13.80
2023-04-20T18:24:13.071Z,13.70
2023-04-20T18:26:41.213Z,13.60
2023-04-20T18:29:09.241Z,13.50
2023-04-20T18:31:37.363Z,13.40
2023-04-20T18:34:05.973Z,13.30
2023-04-20T18:36:33.955Z,13.20
2023-04-20T18:39:01.958Z,13.10
2023-04-20T18:41:31.390Z,13.00
2023-04-20T18:43:59.513Z,12.90
2023-04-20T18:46:27.594Z,12.80
2023-04-20T18:48:55.658Z,12.70
2023-04-20T18:51:23.672Z,12.70
2023-04-20T18:53:51.649Z,12.60
2023-04-20T18:56:19.629Z,12.50
2023-04-20T18:58:49.136Z,12.40
2023-04-20T19:01:18.095Z,12.30
2023-04-20T19:03:47.992Z,12.30
2023-04-20T19:06:16.561Z,12.20
2023-04-20T19:08:44.535Z,12.20
2023-04-20T19:11:12.586Z,12.20
2023-04-20T19:13:44.411Z,12.20
2023-04-20T19:16:14.110Z,12.20
2023-04-20T19:18:42.124Z,12.10
2023-04-20T19:21:11.173Z,12.20
2023-04-20T19:23:39.160Z,12.40
2023-04-20T19:26:07.166Z,12.40
2023-04-20T19:28:35.560Z,12.50
2023-04-20T19:31:03.713Z,12.40
2023-04-20T19:33:33.062Z,12.40
2023-04-20T19:36:03.270Z,12.30
2023-04-20T19:38:32.766Z,12.20
2023-04-20T19:41:01.144Z,12.20
2023-04-20T19:43:29.190Z,12.10
2023-04-20T19:45:57.235Z,11.90
2023-04-20T19:48:25.577Z,11.80
2023-04-20T19:50:56.542Z,11.70
2023-04-20T19:53:25.179Z,11.60
2023-04-20T19:55:53.222Z,11.50
2023-04-20T19:58:21.362Z,11.50
2023-04-20T20:00:49.481Z,11.40
2023-04-20T20:03:17.683Z,11.50
2023-04-20T20:05:45.946Z,11.50
2023-04-20T20:08:16.535Z,11.40
2023-04-20T20:10:44.536Z,11.50
2023-04-20T20:13:12.604Z,11.60
2023-04-20T20:15:40.730Z,11.40
2023-04-20T20:18:10.553Z,11.50
2023-04-20T20:20:38.727Z,11.80
2023-04-20T20:23:06.679Z,11.90
2023-04-20T20:25:36.190Z,11.90
2023-04-20T20:28:04.161Z,11.80
2023-04-20T20:30:32.249Z,11.70
2023-04-20T20:33:00.827Z,11.80
2023-04-20T20:35:31.137Z,11.70
2023-04-20T20:37:59.361Z,11.60
2023-04-20T20:40:27.381Z,11.50
2023-04-20T20:42:56.868Z,11.50
2023-04-20T20:45:25.113Z,11.30
2023-04-20T20:47:53.184Z,11.30
2023-04-20T20:50:21.456Z,11.20
2023-04-20T20:52:49.553Z,11.10
2023-04-20T20:55:17.662Z,11.00
2023-04-20T20:57:46.005Z,11.00
2023-04-20T21:00:16.339Z,11.00
2023-04-20T21:02:44.463Z,11.00
2023-04-20T21:05:12.616Z,11.00
2023-04-20T21:07:40.908Z,11.10
2023-04-20T21:10:09.714Z,11.40
2023-04-20T21:12:37.696Z,11.60
2023-04-20T21:15:06.502Z,11.80
2023-04-20T21:17:35.997Z,11.90
2023-04-20T21:20:05.769Z,11.90
2023-04-20T21:22:33.858Z,11.90
2023-04-20T21:25:01.860Z,11.80
2023-04-20T21:27:29.959Z,11.90
2023-04-20T21:29:57.989Z,11.80
2023-04-20T21:32:27.185Z,11.80
2023-04-20T21:34:56.624Z,11.70
2023-04-20T21:37:24.594Z,11.50
2023-04-20T21:39:52.683Z,11.40
2023-04-20T21:42:20.699Z,11.30
2023-04-20T21:44:48.723Z,11.20
2023-04-20T21:47:16.927Z,11.20
2023-04-20T21:49:44.986Z,11.00
2023-04-20T21:52:14.313Z,10.90
2023-04-20T21:54:42.531Z,10.80
2023-04-20T21:57:10.545Z,10.70
2023-04-20T21:59:38.509Z,10.60
2023-04-20T22:02:06.525Z,10.50
2023-04-20T22:04:34.995Z,10.60
2023-04-20T22:07:03.152Z,10.60
2023-04-20T22:09:32.617Z,10.70
2023-04-20T22:12:02.025Z,10.80
2023-04-20T22:14:30.482Z,10.90
2023-04-20T22:16:59.442Z,11.00
2023-04-20T22:19:27.727Z,10.80
2023-04-20T22:21:55.708Z,10.80
2023-04-20T22:24:24.103Z,10.80
2023-04-20T22:26:53.474Z,10.70
2023-04-20T22:29:21.700Z,10.50
2023-04-20T22:31:49.801Z,10.40
2023-04-20T22:34:17.888Z,10.30
2023-04-20T22:36:46.332Z,10.30
2023-04-20T22:39:14.289Z,10.20
2023-04-20T22:41:42.310Z,10.20
2023-04-20T22:44:14.361Z,10.20
2023-04-20T22:46:42.342Z,10.10
2023-04-20T22:49:10.898Z,10.00
2023-04-20T22:51:38.804Z,9.90
2023-04-20T22:54:06.837Z,10.00
2023-04-20T22:56:35.149Z,10.10
2023-04-20T22:59:03.093Z,10.10
2023-04-20T23:01:32.414Z,10.10
2023-04-20T23:04:00.761Z,10.20
2023-04-20T23:06:29.680Z,10.00
2023-04-20T23:08:59.061Z,10.00
2023-04-20T23:11:29.046Z,9.90
2023-04-20T23:13:57.220Z,9.80
2023-04-20T23:16:28.059Z,9.80
2023-04-20T23:18:57.440Z,9.70
2023-04-20T23:21:25.501Z,9.60
2023-04-20T23:23:53.447Z,9.50
2023-04-20T23:26:21.394Z,9.50
2023-04-20T23:28:51.370Z,9.40
2023-04-20T23:31:19.520Z,9.30
2023-04-20T23:33:48.311Z,9.30
2023-04-20T23:36:17.698Z,9.30
2023-04-20T23:38:45.670Z,9.20
2023-04-20T23:41:15.137Z,9.10
2023-04-20T23:43:43.236Z,9.00
2023-04-20T23:46:12.631Z,8.90
2023-04-20T23:48:40.667Z,8.90
2023-04-20T23:51:08.641Z,8.80
2023-04-20T23:53:39.117Z,8.80
2023-04-20T23:56:08.121Z,8.70
2023-04-20T23:58:36.357Z,8.70
